AirNav   Pilot Hours Calculator
 
 766 users online  

KMGY Dayton-Wright Brothers Airport
Dayton, Ohio, USA

GOING TO DAYTON?


FAA INFORMATION EFFECTIVE 02 DECEMBER 2021

Location

FAA Identifier: MGY
Lat/Long: 39-35-20.3000N 084-13-29.5000W
39-35.338333N 084-13.491667W
39.5889722,-84.2248611
(estimated)
Elevation: 956.6 ft. / 291.6 m (surveyed)
Variation: 04W (1995)
From city: 10 miles S of DAYTON, OH
Time zone: UTC -5 (UTC -4 during Daylight Saving Time)
Zip code: 45342

Airport Operations

Airport use: Open to the public
Activation date: 12/1957
Control tower: no
ARTCC: INDIANAPOLIS CENTER
FSS: DAYTON FLIGHT SERVICE STATION
NOTAMs facility: MGY (NOTAM-D service available)
Attendance: 0800-2100
Wind indicator: lighted
Segmented circle: no
Lights: ACTVT MALS RWY 20; PAPI RWY 02 & 20; MIRL RWY 02/20 - CTAF.
Beacon: white-green (lighted land airport)
Operates sunset to sunrise.

Airport Communications

CTAF/UNICOM: 122.8
WX ASOS: 118.375 (937-885-2171)
COLUMBUS APPROACH: 118.85
COLUMBUS DEPARTURE: 118.85
CLEARANCE DELIVERY: 119.4
CLASS C: 118.85
IC: 118.85
WX AWOS-3 at I68 (8 nm S): 120.55 (513-934-5500)
WX AWOS-3 at MWO (9 nm SW): 120.025 (513-422-3505)
WX AWOS-3 at I19 (12 nm NE): 118.525 (937-372-4668)
WX AWOS-3 at I66 (18 nm E): 124.175 (937-382-1376)
WX ASOS at DAY (19 nm N): PHONE 937-415-6819
WX ASOS at HAO (19 nm SW): 121.425 (513-863-6137)

Nearby radio navigation aids

VOR radial/distance  VOR name  Freq  Var
MXQr300/21.8MIDWEST VOR/DME112.9004W
DQNr164/26.8DAYTON VOR/DME114.5001W

 
NDB name  Hdg/Dist  Freq  Var  ID
ONIDA086/4.622304WMW -- .--
HOOK FIELD066/11.623904WHKF .... -.- ..-.
SPORTYS003/30.724504WPWF .--. .-- ..-.
COURT HOUSE275/38.541406WCSS -.-. ... ...

Airport Services

Fuel available: 100LL JET-A JET-A+
Parking: hangars and tiedowns
Airframe service: MAJOR
Powerplant service: MAJOR
Bottled oxygen: NONE
Bulk oxygen: HIGH

Runway Information

Runway 2/20

Dimensions: 5000 x 100 ft. / 1524 x 30 m
Surface: asphalt/grooved, in good condition
Weight bearing capacity: 
Single wheel: 50.0
Double wheel: 60.0
Runway edge lights: medium intensity
RUNWAY 2  RUNWAY 20
Latitude: 39-34.956500N39-35.718747N
Longitude: 084-13.692647W084-13.289923W
Elevation: 936.2 ft.956.6 ft.
Traffic pattern: leftleft
Runway heading: 026 magnetic, 022 true206 magnetic, 202 true
Displaced threshold: no590 ft.
Declared distances: TORA:5000 TODA:5000 ASDA:4700 LDA:4700TORA:5000 TODA:5000 ASDA:5000 LDA:4410
Markings: nonprecision, in fair conditionnonprecision, in fair condition
Visual slope indicator: 2-light PAPI on left (3.00 degrees glide path)4-light PAPI on left (3.00 degrees glide path)
UNUSBL BYD 7 DEGS RIGHT OF CNTRLN.
Approach lights: MALS: 1,400 foot medium intensity approach lighting system
Runway end identifier lights: no
Touchdown point: yes, no lightsyes, no lights
Instrument approach: LOC/DME
Obstructions: none25 ft. road, 540 ft. from runway, 300 ft. right of centerline, 13:1 slope to clear

Airport Ownership and Management from official FAA records

Ownership: Publicly-owned
Owner: CITY OF DAYTON
3600 TERMINAL DR STE 300
VANDALIA, OH 45377-1095
Phone 937-885-4121
Manager: BRANDON ELLIS
10550 N SPRINGBORO PIKE
MIAMISBURG, OH 45342-4956
Phone 937-454-8230

Airport Operational Statistics

Aircraft based on the field: 69
Single engine airplanes: 48
Multi engine airplanes: 9
Jet airplanes: 7
Helicopters: 5
    
Aircraft operations: avg 244/day *
48% local general aviation
45% transient general aviation
7% air taxi
<1% military
* for 12-month period ending 26 September 2019

Additional Remarks

RWYS GROSS WEIGHT PER ARPT MGR.
TWY LIGHTS ON SS-SR.
DEER, BIRDS, & OTR WILDLIFE ON & INVOF ARPT.
SURFACE CONDITIONS UNMNT 2030-1200Z++ WKDAYS/ ALL DAY WKENDS/HOL.
FULL POWER MAINTENANCE RUNUPS PROHIBITED IN THE HOLDING APRON AT THE NORTHWEST CORNER OF TWY A BETWEEN THE HOURS OF 0800L TO 1700L MONDAY THRU FRIDAY.

Instrument Procedures

NOTE: All procedures below are presented as PDF files. If you need a reader for these files, you should download the free Adobe Reader.

NOT FOR NAVIGATION. Please procure official charts for flight.
FAA instrument procedures published for use from 02 December 2021 at 0901Z to 30 December 2021 at 0900Z.

 
STARs - Standard Terminal Arrivals
DANEI THREE **CHANGED**   download (178KB)
 
IAPs - Instrument Approach Procedures
RNAV (GPS) RWY 02   download (239KB)
RNAV (GPS) RWY 20   download (239KB)
LOC RWY 20   download (220KB)
NDB-A   download (180KB)
NOTE: Special Alternate Minimums apply   download (16KB)
NOTE: Special Take-Off Minimums/Departure Procedures apply   download (239KB)

Other nearby airports with instrument procedures:

I68 - Warren County Airport/John Lane Field (8 nm S)
KMWO - Middletown Regional Airport/Hook Field (9 nm SW)
I19 - Greene County/Lewis A Jackson Regional Airport (12 nm NE)
KFFO - Wright-Patterson Air Force Base (16 nm NE)
I66 - Clinton Field Airport (18 nm E)
KDAY - James M Cox Dayton International Airport (19 nm N)
KHAO - Butler County Regional Airport/Hogan Field (19 nm SW)
 
Loc | Ops | Rwys | IFR | FBO | Links
Com | Nav | Svcs | Stats | Notes
Area around KMGY (Dayton-Wright Brothers Airport)
 
Road maps at: MapQuest Bing Google
 
Aerial photo
WARNING: Photo may not be current or correct
Aerial photo of KMGY (Dayton-Wright Brothers Airport)
Photo taken 25-Oct-2011
looking east.

Do you have a better or more recent aerial photo of Dayton-Wright Brothers Airport that you would like to share? If so, please send us your photo.

 
Sectional chart

 
Airport diagram
CAUTION: Diagram may not be current
Diagram of KMGY (Dayton-Wright Brothers Airport)
 
Airport distance calculator
Flying to Dayton-Wright Brothers Airport? Find the distance to fly.

From to KMGY

Sunrise and sunset
Times for 09-Dec-2021
 Local
(UTC-5)
 Zulu
(UTC)
Morning civil twilight07:1712:17
Sunrise07:4712:47
Sunset17:1222:12
Evening civil twilight17:4222:42

Current date and time
Zulu (UTC)  09-Dec-2021 13:07:04
Local (UTC-5)  09-Dec-2021 08:07:04
 
METAR
KMGY 091253Z AUTO 16007KT 10SM CLR M01/M05 A3007 RMK AO2 SLP192 T10111050
KI68 
8nm S 
081315Z AUTO 19003KT 10SM CLR M03/M04 A3002 RMK AO1 T10351045
KMWO 
9nm SW 
091255Z AUTO 00000KT 7SM BR CLR M04/M05 A3011 RMK AO2 T10401047
KFFO 
16nm NE 
091256Z AUTO 12003KT 10SM SCT210 M02/M06 A3008 RMK AO2 SLP198 T10221060
KDAY 
19nm N 
091256Z 15007KT 8SM BKN220 OVC250 M02/M06 A3009 RMK AO2 SLP199 T10171056
KHAO 
19nm SW 
091253Z AUTO 10003KT 9SM CLR M03/M04 A3010 RMK AO2 SLP202 T10281044
TAF
KFFO 
16nm NE 
091100Z 0911/1017 15009KT 9999 FEW150 SCT250 510103 QNH2983INS TEMPO 0918/0922 17010G20KT 520103 BECMG 0922/0923 18012KT 9999 SCT030 BKN050 510105 QNH2984INS BECMG 1003/1004 22006KT 9000 BR SCT008 BKN020 OVC060 510103 QNH2989INS BECMG 1011/1012 17006KT 6000 BR BKN012 OVC020 QNH2994INS BECMG 1015/1016 14006KT 9000 BR VCSH OVC015 QNH2992INS TX07/1010Z TNM05/0911Z
KDAY 
19nm N 
091133Z 0912/1012 15010KT P6SM BKN250 FM091600 16012G22KT P6SM SCT080 BKN250 FM092300 17010KT P6SM BKN050 WS020/20040KT FM100300 21008KT P6SM BKN050 FM100600 20008KT P6SM OVC015 FM101100 20008KT 5SM BR OVC008
NOTAMs
Click for the latest NOTAMs
NOTAMs are issued by the DoD/FAA and will open in a separate window not controlled by AirNav.

 

 
 

FBO, Fuel Providers, and Aircraft Ground Support

  
 Business Name 
 
 Contact 
 
 Services / Description 
 
Fuel Prices
 
Comments
  
 First Flight Aviation
UNICOM 122.80
937-885-5580
937-313-6573
[web site]
[email]
First Flight Aviation is a FAA Certified Repair Station (GA5R-876M) and full service FBO. We are certified for maintenance on Piston, Turboprop and Jet Aircraft. Our objective is to make owning any aircraft the most satisfying experience in aviation. Overnight heated hangar space available!
 
Crew car   FAA-Approved Repair Station   Cirrus  
 
More info about First Flight Aviation
Avfuel
100LL Jet A
FS $5.28 $4.09 
 Updated 06-Dec-2021
 
   3 read write
FS=Full service
Update Fuel Prices
 

Would you like to see your business listed on this page?

 If your business provides an interesting product or service to pilots, flight crews, aircraft, or users of the Dayton-Wright Brothers Airport, you should consider listing it here.  To start the listing process, click on the button below
 
Add a business
 

Other Pages about Dayton-Wright Brothers Airport

Update a link
 
Copyright © AirNav, LLC. All rights reserved. Privacy Policy  Contact